KSAD/SAD METAR and TAF weather

Enter ICAO airport designator
Station Type Date Time Source
KSAD METAR 2022/11/30 16:51 UTC NOAA

KSAD 301651Z AUTO 12009KT 10SM CLR 11/M04 A3014 RMK AO2 SLP195 T01111044 $


Station Type Date Time Source
KSAD Decoded METAR 2022/11/30 16:51 UTC NOAA

SAFFORD MUNICIPAL AIRPORT, AZ, United States (KSAD) 32-51N 109-38W 962M
Nov 30, 2022 - 11:51 AM EST / 2022.11.30 1651 UTC
Wind: from the ESE (120 degrees) at 10 MPH (9 KT):0
Visibility: 10 mile(s):0
Sky conditions: clear
Temperature: 52.0 F (11.1 C)
Dew Point: 24.1 F (-4.4 C)
Relative Humidity: 33%
Pressure (altimeter): 30.14 in. Hg (1020 hPa)
ob: KSAD 301651Z AUTO 12009KT 10SM CLR 11/M04 A3014 RMK AO2 SLP195 T01111044
cycle: 17

Station Type Date Time Source
KSAD TAF UTC NOAA

Error!

Example: see airport list